Time;durP1;ratioP1;P1;durP2;ratioP2;P2;SDS_P1;SDS_P2;PMS_P1;PMS_P2;Temp;Humidity;BMP_temperature;BMP_pressure;BME280_temperature;BME280_humidity;BME280_pressure;Samples;Min_cycle;Max_cycle;Signal;HPM_P1;HPM_P2
2023/03/06 00:01:07;;;;;;;4.70;3.92;;;;;;;;;;5095075;28;20193;-66
2023/03/06 00:03:34;;;;;;;3.90;3.60;;;;;;;;;;5095067;28;20195;-66
2023/03/06 00:06:01;;;;;;;7.00;4.88;;;;;;;;;;5094969;28;20187;-66
2023/03/06 00:08:30;;;;;;;5.72;4.85;;;;;;;;;;5095176;28;20223;-66
2023/03/06 00:10:57;;;;;;;4.80;4.40;;;;;;;;;;5094977;28;20252;-66
2023/03/06 00:13:25;;;;;;;5.05;4.15;;;;;;;;;;5094711;28;20199;-66
2023/03/06 00:15:52;;;;;;;4.57;4.18;;;;;;;;;;5094671;28;20192;-66
2023/03/06 00:18:19;;;;;;;4.50;4.18;;;;;;;;;;5094700;28;20240;-66
2023/03/06 00:20:46;;;;;;;5.50;4.10;;;;;;;;;;5094855;28;20228;-66
2023/03/06 00:23:13;;;;;;;4.15;3.85;;;;;;;;;;5094975;28;20191;-66
2023/03/06 00:25:43;;;;;;;4.28;3.97;;;;;;;;;;5094779;28;20212;-65
2023/03/06 00:28:13;;;;;;;4.10;3.80;;;;;;;;;;5094747;28;20697;-66
2023/03/06 00:30:40;;;;;;;4.90;3.85;;;;;;;;;;5094319;28;20678;-66
2023/03/06 00:33:07;;;;;;;4.72;4.30;;;;;;;;;;5094360;28;20644;-67
2023/03/06 00:35:34;;;;;;;8.32;4.25;;;;;;;;;;5094325;28;20753;-66
2023/03/06 00:38:01;;;;;;;3.60;3.30;;;;;;;;;;5094109;28;20191;-66
2023/03/06 00:40:28;;;;;;;4.88;4.10;;;;;;;;;;5094173;28;20249;-66
2023/03/06 00:42:57;;;;;;;4.45;4.05;;;;;;;;;;5094306;28;20678;-66
2023/03/06 00:45:24;;;;;;;4.35;3.95;;;;;;;;;;5094233;28;20613;-67
2023/03/06 00:47:51;;;;;;;4.05;3.75;;;;;;;;;;5094110;28;20658;-66
2023/03/06 00:50:19;;;;;;;5.43;3.90;;;;;;;;;;5094210;28;20215;-66
2023/03/06 00:52:46;;;;;;;4.15;3.75;;;;;;;;;;5094201;28;20677;-65
2023/03/06 00:55:13;;;;;;;5.32;4.50;;;;;;;;;;5094112;28;20280;-65
2023/03/06 00:57:40;;;;;;;5.07;4.32;;;;;;;;;;5094033;28;20191;-66
2023/03/06 01:00:09;;;;;;;4.10;3.80;;;;;;;;;;5093842;28;20190;-65
2023/03/06 01:02:36;;;;;;;4.57;4.22;;;;;;;;;;5094085;28;20191;-66
2023/03/06 01:05:03;;;;;;;3.53;3.33;;;;;;;;;;5093793;28;20726;-66
2023/03/06 01:07:32;;;;;;;4.40;4.00;;;;;;;;;;5093857;28;20330;-66
2023/03/06 01:09:59;;;;;;;4.72;4.32;;;;;;;;;;5093722;28;20268;-65
2023/03/06 01:12:27;;;;;;;4.57;4.20;;;;;;;;;;5093612;28;20249;-65
2023/03/06 01:14:54;;;;;;;4.90;4.50;;;;;;;;;;5093890;28;20191;-66
2023/03/06 01:17:22;;;;;;;4.88;4.38;;;;;;;;;;5093583;28;20218;-64
2023/03/06 01:19:49;;;;;;;4.47;4.15;;;;;;;;;;5093571;28;20736;-66
2023/03/06 01:22:16;;;;;;;4.70;4.35;;;;;;;;;;5093666;28;20282;-66
2023/03/06 01:24:46;;;;;;;4.22;3.88;;;;;;;;;;5093425;28;20200;-66
2023/03/06 01:27:13;;;;;;;4.30;3.55;;;;;;;;;;5093509;28;20286;-65
2023/03/06 01:29:40;;;;;;;4.75;4.35;;;;;;;;;;5093336;28;20196;-67
2023/03/06 01:32:08;;;;;;;4.20;3.90;;;;;;;;;;5093453;28;20223;-66
2023/03/06 01:34:36;;;;;;;4.20;3.75;;;;;;;;;;5093420;28;20188;-66
2023/03/06 01:37:04;;;;;;;5.35;4.85;;;;;;;;;;5093319;28;20199;-66
2023/03/06 01:39:31;;;;;;;4.00;3.70;;;;;;;;;;5093187;28;20191;-65
2023/03/06 01:41:57;;;;;;;4.75;4.32;;;;;;;;;;5093414;28;20190;-66
2023/03/06 01:44:25;;;;;;;4.10;3.70;;;;;;;;;;5093401;28;20602;-66
2023/03/06 01:46:52;;;;;;;4.43;4.07;;;;;;;;;;5093385;28;20254;-67
2023/03/06 01:49:20;;;;;;;4.45;4.05;;;;;;;;;;5093056;28;20202;-66
2023/03/06 01:51:50;;;;;;;3.45;3.25;;;;;;;;;;5092186;28;20262;-66
2023/03/06 01:54:19;;;;;;;3.95;3.65;;;;;;;;;;5093139;28;20621;-66
2023/03/06 01:56:48;;;;;;;5.07;4.45;;;;;;;;;;5093031;28;20283;-66
2023/03/06 01:59:15;;;;;;;4.65;3.95;;;;;;;;;;5093301;28;20225;-66
2023/03/06 02:01:43;;;;;;;5.45;4.28;;;;;;;;;;5093059;28;20250;-66
2023/03/06 02:04:10;;;;;;;6.15;5.10;;;;;;;;;;5093019;28;20195;-66
2023/03/06 02:06:39;;;;;;;5.78;5.28;;;;;;;;;;5093053;28;20593;-66
2023/03/06 02:09:07;;;;;;;5.63;4.72;;;;;;;;;;5092876;28;20188;-66
2023/03/06 02:11:34;;;;;;;5.80;4.68;;;;;;;;;;5093042;28;20218;-66
2023/03/06 02:14:01;;;;;;;6.00;5.50;;;;;;;;;;5093076;28;20676;-66
2023/03/06 02:16:30;;;;;;;5.55;4.95;;;;;;;;;;5092753;28;20251;-66
2023/03/06 02:18:58;;;;;;;5.97;5.38;;;;;;;;;;5092833;28;20206;-65
2023/03/06 02:21:27;;;;;;;4.65;4.22;;;;;;;;;;5093422;28;20193;-67
2023/03/06 02:24:02;;;;;;;6.47;5.00;;;;;;;;;;5092943;28;20189;-66
2023/03/06 02:26:31;;;;;;;5.40;4.90;;;;;;;;;;5092942;28;20236;-66
2023/03/06 02:28:58;;;;;;;6.85;6.10;;;;;;;;;;5092804;28;20258;-65
2023/03/06 02:31:27;;;;;;;5.47;4.97;;;;;;;;;;5092696;28;20215;-66
2023/03/06 02:34:05;;;;;;;5.95;5.45;;;;;;;;;;5092728;28;20287;-66
2023/03/06 02:36:33;;;;;;;5.95;4.80;;;;;;;;;;5093068;28;20739;-67
2023/03/06 02:39:00;;;;;;;5.53;5.03;;;;;;;;;;5092771;28;20218;-66
2023/03/06 02:41:27;;;;;;;7.50;5.45;;;;;;;;;;5092513;28;20201;-65
2023/03/06 02:43:56;;;;;;;6.10;5.55;;;;;;;;;;5092663;28;20644;-66
2023/03/06 02:46:23;;;;;;;7.85;4.25;;;;;;;;;;5092893;28;20198;-65
2023/03/06 02:48:50;;;;;;;5.95;5.40;;;;;;;;;;5092578;28;20193;-66
2023/03/06 02:51:17;;;;;;;7.40;5.40;;;;;;;;;;5092619;28;20247;-66
2023/03/06 02:53:44;;;;;;;5.40;4.35;;;;;;;;;;5092654;28;20532;-66
2023/03/06 02:56:11;;;;;;;7.50;5.30;;;;;;;;;;5092614;28;20652;-65
2023/03/06 02:58:39;;;;;;;5.60;4.60;;;;;;;;;;5092443;28;20245;-65
2023/03/06 03:01:07;;;;;;;6.22;4.55;;;;;;;;;;5092692;28;20289;-65
2023/03/06 03:03:34;;;;;;;5.20;4.70;;;;;;;;;;5096309;28;20228;-64
2023/03/06 03:06:01;;;;;;;4.82;4.30;;;;;;;;;;5096247;28;20192;-66
2023/03/06 03:08:29;;;;;;;4.32;3.92;;;;;;;;;;5096163;28;20276;-66
2023/03/06 03:10:56;;;;;;;5.13;4.63;;;;;;;;;;5096250;28;20216;-65
2023/03/06 03:13:23;;;;;;;5.22;4.60;;;;;;;;;;5095940;28;20236;-66
2023/03/06 03:15:58;;;;;;;4.97;4.50;;;;;;;;;;5095941;28;20187;-66
2023/03/06 03:18:26;;;;;;;7.00;4.20;;;;;;;;;;5096015;28;20236;-66
2023/03/06 03:20:53;;;;;;;4.93;4.43;;;;;;;;;;5095955;28;20199;-65
2023/03/06 03:23:20;;;;;;;5.72;4.10;;;;;;;;;;5095876;28;20274;-66
2023/03/06 03:25:47;;;;;;;6.60;4.00;;;;;;;;;;5095740;28;20200;-66
2023/03/06 03:28:14;;;;;;;7.18;4.85;;;;;;;;;;5095724;28;20650;-66
2023/03/06 03:30:42;;;;;;;5.72;4.30;;;;;;;;;;5095857;28;20192;-65
2023/03/06 03:33:09;;;;;;;4.22;3.30;;;;;;;;;;5095736;28;20219;-66
2023/03/06 03:35:37;;;;;;;5.32;3.83;;;;;;;;;;5095694;28;20261;-66
2023/03/06 03:38:04;;;;;;;10.40;4.32;;;;;;;;;;5095562;28;20198;-65
2023/03/06 03:40:31;;;;;;;5.03;3.58;;;;;;;;;;5095442;28;20196;-66
2023/03/06 03:42:58;;;;;;;5.03;3.90;;;;;;;;;;5095657;28;20232;-65
2023/03/06 03:45:26;;;;;;;3.40;3.10;;;;;;;;;;5095596;28;20277;-65
2023/03/06 03:47:55;;;;;;;8.88;3.38;;;;;;;;;;5095512;28;20620;-66
2023/03/06 03:50:23;;;;;;;4.95;3.72;;;;;;;;;;5095349;28;20191;-65
2023/03/06 03:52:51;;;;;;;3.80;3.00;;;;;;;;;;5095242;28;20616;-65
2023/03/06 03:55:18;;;;;;;3.65;3.17;;;;;;;;;;5095353;28;20246;-66
2023/03/06 03:57:45;;;;;;;5.35;3.17;;;;;;;;;;5095433;28;20211;-65
2023/03/06 04:00:15;;;;;;;5.18;4.22;;;;;;;;;;5095073;28;20205;-66
2023/03/06 04:02:42;;;;;;;4.60;4.20;;;;;;;;;;5095156;28;20195;-66
2023/03/06 04:05:10;;;;;;;4.85;3.30;;;;;;;;;;5095073;28;20274;-65
2023/03/06 04:07:37;;;;;;;4.97;3.35;;;;;;;;;;5094959;28;20245;-65
2023/03/06 04:10:06;;;;;;;3.05;2.75;;;;;;;;;;5094957;28;20698;-66
2023/03/06 04:12:33;;;;;;;4.07;3.67;;;;;;;;;;5094756;28;20259;-65
2023/03/06 04:15:00;;;;;;;2.88;2.40;;;;;;;;;;5094160;28;20196;-65
2023/03/06 04:17:28;;;;;;;3.28;3.00;;;;;;;;;;5094736;28;20311;-66
2023/03/06 04:19:55;;;;;;;4.45;3.30;;;;;;;;;;5094705;28;20196;-66
2023/03/06 04:22:22;;;;;;;4.45;2.80;;;;;;;;;;5094995;28;20282;-66
2023/03/06 04:24:49;;;;;;;4.20;3.10;;;;;;;;;;5094862;28;20197;-65
2023/03/06 04:27:18;;;;;;;5.32;3.50;;;;;;;;;;5094817;28;20283;-66
2023/03/06 04:29:45;;;;;;;5.22;3.08;;;;;;;;;;5094639;28;20190;-65
2023/03/06 04:32:12;;;;;;;3.30;3.00;;;;;;;;;;5094405;28;20303;-66
2023/03/06 04:34:41;;;;;;;3.22;2.95;;;;;;;;;;5094407;28;20188;-66
2023/03/06 04:37:10;;;;;;;3.10;2.80;;;;;;;;;;5094641;28;20199;-66
2023/03/06 04:39:37;;;;;;;3.50;2.75;;;;;;;;;;5094425;28;20196;-67
2023/03/06 04:42:04;;;;;;;3.60;3.17;;;;;;;;;;5094520;28;20193;-65
2023/03/06 04:44:32;;;;;;;2.80;2.60;;;;;;;;;;5094374;28;20184;-65
2023/03/06 04:46:59;;;;;;;2.55;2.35;;;;;;;;;;5094228;28;20221;-66
2023/03/06 04:49:26;;;;;;;3.25;2.95;;;;;;;;;;5094462;28;20245;-66
2023/03/06 04:51:53;;;;;;;3.33;3.03;;;;;;;;;;5094063;28;20307;-65
2023/03/06 04:54:21;;;;;;;3.00;2.80;;;;;;;;;;5094042;28;20199;-66
2023/03/06 04:56:48;;;;;;;3.92;3.60;;;;;;;;;;5094212;28;20223;-66
2023/03/06 04:59:15;;;;;;;5.68;3.95;;;;;;;;;;5094095;28;20232;-66
2023/03/06 05:01:43;;;;;;;4.00;3.70;;;;;;;;;;5093977;28;20195;-66
2023/03/06 05:04:10;;;;;;;4.55;3.20;;;;;;;;;;5094135;28;20644;-65
2023/03/06 05:06:37;;;;;;;5.22;3.58;;;;;;;;;;5094174;28;20211;-66
2023/03/06 05:09:05;;;;;;;3.80;2.90;;;;;;;;;;5094028;28;20243;-66
2023/03/06 05:11:32;;;;;;;3.92;3.58;;;;;;;;;;5093574;28;20288;-65
2023/03/06 05:13:59;;;;;;;3.63;3.33;;;;;;;;;;5093928;28;20187;-66
2023/03/06 05:16:26;;;;;;;4.22;2.72;;;;;;;;;;5093444;28;20227;-66
2023/03/06 05:18:55;;;;;;;3.78;3.40;;;;;;;;;;5093507;28;20198;-66
2023/03/06 05:21:22;;;;;;;3.22;3.03;;;;;;;;;;5093710;28;20211;-66
2023/03/06 05:23:49;;;;;;;3.65;3.45;;;;;;;;;;5093589;28;20197;-65
2023/03/06 05:26:16;;;;;;;4.13;3.72;;;;;;;;;;5093171;28;20192;-66
2023/03/06 05:28:43;;;;;;;4.28;3.88;;;;;;;;;;5093414;28;20691;-66
2023/03/06 05:31:10;;;;;;;4.40;4.10;;;;;;;;;;5093734;28;20185;-66
2023/03/06 05:33:38;;;;;;;4.05;3.75;;;;;;;;;;5093521;28;20267;-66
2023/03/06 05:36:07;;;;;;;5.35;3.58;;;;;;;;;;5093564;28;20198;-65
2023/03/06 05:38:36;;;;;;;4.57;4.28;;;;;;;;;;5093460;28;20558;-65
2023/03/06 05:41:04;;;;;;;4.90;4.55;;;;;;;;;;5093167;28;20189;-66
2023/03/06 05:43:31;;;;;;;4.93;4.53;;;;;;;;;;5093505;28;20250;-65
2023/03/06 05:46:02;;;;;;;7.38;4.65;;;;;;;;;;5093385;28;20257;-65
2023/03/06 05:48:29;;;;;;;4.80;4.40;;;;;;;;;;5093384;28;20194;-65
2023/03/06 05:50:56;;;;;;;4.32;4.03;;;;;;;;;;5093268;28;20198;-65
2023/03/06 05:53:25;;;;;;;5.13;4.72;;;;;;;;;;5092983;28;20575;-65
2023/03/06 05:55:58;;;;;;;4.80;4.40;;;;;;;;;;5093075;28;20225;-66
2023/03/06 05:58:25;;;;;;;5.05;4.65;;;;;;;;;;5093215;28;20593;-65
2023/03/06 06:00:53;;;;;;;5.40;4.90;;;;;;;;;;5093042;28;20224;-66
2023/03/06 06:03:20;;;;;;;5.05;4.65;;;;;;;;;;5093104;28;20649;-65
2023/03/06 06:05:47;;;;;;;4.70;4.32;;;;;;;;;;5093029;28;20198;-65
2023/03/06 06:08:14;;;;;;;5.55;5.05;;;;;;;;;;5093008;28;20221;-65
2023/03/06 06:10:43;;;;;;;6.05;5.45;;;;;;;;;;5093084;28;20270;-65
2023/03/06 06:13:10;;;;;;;5.40;4.95;;;;;;;;;;5092786;28;20221;-66
2023/03/06 06:15:38;;;;;;;5.50;5.10;;;;;;;;;;5093000;28;20215;-65
2023/03/06 06:18:06;;;;;;;6.05;5.55;;;;;;;;;;5092944;28;20190;-65
2023/03/06 06:20:34;;;;;;;5.80;5.30;;;;;;;;;;5092819;28;20223;-63
2023/03/06 06:23:01;;;;;;;6.88;4.68;;;;;;;;;;5092790;28;20260;-63
2023/03/06 06:25:28;;;;;;;6.72;6.22;;;;;;;;;;5092946;28;20199;-64
2023/03/06 06:27:57;;;;;;;5.78;5.25;;;;;;;;;;5093023;28;20195;-64
2023/03/06 06:30:24;;;;;;;5.45;4.95;;;;;;;;;;5092793;28;20214;-65
2023/03/06 06:32:52;;;;;;;5.53;5.03;;;;;;;;;;5092790;28;20270;-65
2023/03/06 06:35:19;;;;;;;7.28;6.57;;;;;;;;;;5092589;28;20280;-64
2023/03/06 06:37:46;;;;;;;5.38;4.93;;;;;;;;;;5095483;28;20192;-64
2023/03/06 06:40:13;;;;;;;6.70;6.00;;;;;;;;;;5096967;28;20214;-64
2023/03/06 06:42:40;;;;;;;4.75;4.35;;;;;;;;;;5096744;28;20191;-64
2023/03/06 06:45:10;;;;;;;6.15;5.38;;;;;;;;;;5096626;28;20202;-65
2023/03/06 06:47:39;;;;;;;6.45;5.75;;;;;;;;;;5096780;28;20670;-65
2023/03/06 06:50:08;;;;;;;5.90;5.40;;;;;;;;;;5096638;28;20200;-65
2023/03/06 06:52:38;;;;;;;5.70;5.20;;;;;;;;;;5096560;28;20223;-65
2023/03/06 06:55:06;;;;;;;25.52;19.20;;;;;;;;;;5096566;28;20191;-65
2023/03/06 06:57:36;;;;;;;14.95;13.07;;;;;;;;;;5096000;28;20193;-64
2023/03/06 07:00:03;;;;;;;6.78;6.18;;;;;;;;;;5096154;28;20195;-65
2023/03/06 07:02:32;;;;;;;9.45;6.63;;;;;;;;;;5096099;28;20591;-64
2023/03/06 07:04:59;;;;;;;9.55;8.57;;;;;;;;;;5096095;28;20195;-64
2023/03/06 07:07:26;;;;;;;5.80;5.40;;;;;;;;;;5096220;28;20199;-64
2023/03/06 07:09:53;;;;;;;5.50;5.00;;;;;;;;;;5095844;28;20614;-65
2023/03/06 07:12:20;;;;;;;8.57;6.32;;;;;;;;;;5095955;28;20214;-64
2023/03/06 07:14:48;;;;;;;6.25;5.72;;;;;;;;;;5095894;28;20614;-67
2023/03/06 07:17:15;;;;;;;6.93;5.93;;;;;;;;;;5095689;28;20214;-64
2023/03/06 07:19:43;;;;;;;5.72;5.22;;;;;;;;;;5095764;28;20196;-65
2023/03/06 07:22:10;;;;;;;5.95;5.40;;;;;;;;;;5096040;28;20200;-65
2023/03/06 07:24:37;;;;;;;6.88;5.53;;;;;;;;;;5095720;28;20199;-65
2023/03/06 07:27:05;;;;;;;7.28;6.53;;;;;;;;;;5095823;28;20639;-64
2023/03/06 07:29:33;;;;;;;6.38;5.68;;;;;;;;;;5095582;28;20644;-63
2023/03/06 07:32:00;;;;;;;6.90;6.20;;;;;;;;;;5095717;28;20192;-65
2023/03/06 07:34:28;;;;;;;6.15;5.53;;;;;;;;;;5095511;28;20196;-64
2023/03/06 07:36:56;;;;;;;6.90;6.20;;;;;;;;;;5095636;28;20196;-65
2023/03/06 07:39:23;;;;;;;9.23;6.82;;;;;;;;;;5095653;28;20198;-64
2023/03/06 07:41:52;;;;;;;7.93;6.55;;;;;;;;;;5095533;28;20199;-64
2023/03/06 07:44:19;;;;;;;10.05;8.50;;;;;;;;;;5095320;28;20200;-66
2023/03/06 07:46:46;;;;;;;9.52;8.52;;;;;;;;;;5095550;28;20224;-65
2023/03/06 07:49:13;;;;;;;8.98;8.07;;;;;;;;;;5095376;28;20186;-65
2023/03/06 07:51:40;;;;;;;8.90;7.97;;;;;;;;;;5095458;28;20246;-65
2023/03/06 07:54:09;;;;;;;8.57;7.75;;;;;;;;;;5095186;28;20578;-65
2023/03/06 07:56:36;;;;;;;7.82;6.60;;;;;;;;;;5095211;28;20234;-65
2023/03/06 07:59:03;;;;;;;5.85;5.18;;;;;;;;;;5095336;28;20249;-65
2023/03/06 08:01:30;;;;;;;6.10;5.60;;;;;;;;;;5095311;28;20264;-65
2023/03/06 08:03:59;;;;;;;6.40;5.80;;;;;;;;;;5094825;28;20191;-64
2023/03/06 08:06:27;;;;;;;6.82;6.10;;;;;;;;;;5095068;28;20653;-63
2023/03/06 08:08:55;;;;;;;6.30;5.70;;;;;;;;;;5094908;28;20204;-62
2023/03/06 08:11:25;;;;;;;6.97;6.38;;;;;;;;;;5094896;28;20560;-68
2023/03/06 08:13:52;;;;;;;8.50;6.10;;;;;;;;;;5095973;28;20219;-83
2023/03/06 08:16:20;;;;;;;6.18;5.57;;;;;;;;;;5095774;28;20621;-77
2023/03/06 08:18:47;;;;;;;6.47;5.88;;;;;;;;;;5095004;28;20694;-66
2023/03/06 08:21:15;;;;;;;5.30;4.90;;;;;;;;;;5094783;28;20231;-66
2023/03/06 08:23:43;;;;;;;5.72;5.22;;;;;;;;;;5094643;28;20193;-66
2023/03/06 08:26:11;;;;;;;5.43;4.93;;;;;;;;;;5094841;28;20659;-67
2023/03/06 08:28:40;;;;;;;6.20;4.20;;;;;;;;;;5094645;28;20703;-66
2023/03/06 08:31:10;;;;;;;4.07;3.75;;;;;;;;;;5094471;28;20200;-66
2023/03/06 08:33:38;;;;;;;5.00;4.50;;;;;;;;;;5094579;28;20306;-66
2023/03/06 08:36:05;;;;;;;5.05;4.57;;;;;;;;;;5094465;28;20373;-65
2023/03/06 08:38:32;;;;;;;5.30;4.80;;;;;;;;;;5094332;28;20222;-67
2023/03/06 08:41:00;;;;;;;14.63;5.05;;;;;;;;;;5094563;28;20193;-67
2023/03/06 08:43:27;;;;;;;5.43;5.03;;;;;;;;;;5094477;28;20286;-67
2023/03/06 08:45:56;;;;;;;6.18;5.57;;;;;;;;;;5094491;28;20514;-66
2023/03/06 08:48:24;;;;;;;7.00;6.40;;;;;;;;;;5094281;28;20193;-67
2023/03/06 08:50:52;;;;;;;6.03;5.53;;;;;;;;;;5094167;28;20199;-67
2023/03/06 08:53:20;;;;;;;6.35;5.70;;;;;;;;;;5094172;28;20304;-67
2023/03/06 08:55:47;;;;;;;8.93;8.02;;;;;;;;;;5094310;28;20217;-67
2023/03/06 08:58:14;;;;;;;7.43;6.72;;;;;;;;;;5094231;28;20194;-67
2023/03/06 09:00:41;;;;;;;8.68;6.30;;;;;;;;;;5093575;28;20195;-67
2023/03/06 09:03:11;;;;;;;10.25;6.68;;;;;;;;;;5093747;28;20222;-68
2023/03/06 09:05:40;;;;;;;9.20;8.30;;;;;;;;;;5093917;28;20227;-67
2023/03/06 09:08:07;;;;;;;7.90;7.10;;;;;;;;;;5093804;28;20191;-67
2023/03/06 09:10:34;;;;;;;8.30;7.50;;;;;;;;;;5093949;28;20278;-68
2023/03/06 09:13:01;;;;;;;9.55;8.65;;;;;;;;;;5093888;28;20568;-68
2023/03/06 09:15:28;;;;;;;8.13;7.35;;;;;;;;;;5093932;28;20623;-67
2023/03/06 09:17:55;;;;;;;7.30;6.60;;;;;;;;;;5093540;28;20223;-67
2023/03/06 09:20:24;;;;;;;7.93;6.57;;;;;;;;;;5093978;28;20195;-67
2023/03/06 09:22:51;;;;;;;7.80;7.10;;;;;;;;;;5093569;28;20193;-68
2023/03/06 09:25:20;;;;;;;6.75;6.15;;;;;;;;;;5093693;28;20218;-68
2023/03/06 09:27:47;;;;;;;6.30;5.70;;;;;;;;;;5093642;28;20566;-68
2023/03/06 09:30:15;;;;;;;6.72;5.65;;;;;;;;;;5093301;28;20652;-68
2023/03/06 09:32:42;;;;;;;8.77;6.18;;;;;;;;;;5093212;28;20195;-68
2023/03/06 09:35:09;;;;;;;7.15;6.10;;;;;;;;;;5093555;28;20191;-67
2023/03/06 09:37:38;;;;;;;5.75;5.28;;;;;;;;;;5093414;28;20187;-68
2023/03/06 09:40:05;;;;;;;5.72;5.22;;;;;;;;;;5093190;28;20658;-68
2023/03/06 09:42:33;;;;;;;4.20;3.90;;;;;;;;;;5093201;28;20200;-68
2023/03/06 09:45:01;;;;;;;6.05;4.72;;;;;;;;;;5093053;28;20189;-67
2023/03/06 09:47:38;;;;;;;4.85;4.38;;;;;;;;;;5093316;28;20203;-67
2023/03/06 09:50:17;;;;;;;5.90;4.63;;;;;;;;;;5093259;28;20213;-67
2023/03/06 09:52:49;;;;;;;3.90;3.60;;;;;;;;;;5092992;28;20195;-67
2023/03/06 09:55:18;;;;;;;4.40;4.00;;;;;;;;;;5093041;28;20279;-68
2023/03/06 09:57:48;;;;;;;5.60;4.50;;;;;;;;;;5093159;28;20195;-67
2023/03/06 10:00:17;;;;;;;5.13;4.63;;;;;;;;;;5093122;28;20195;-68
2023/03/06 10:02:45;;;;;;;5.40;5.00;;;;;;;;;;5092978;28;20197;-67
2023/03/06 10:05:14;;;;;;;3.40;3.10;;;;;;;;;;5093012;28;20198;-68
2023/03/06 10:07:45;;;;;;;4.38;3.50;;;;;;;;;;5092503;28;20278;-67
2023/03/06 10:10:17;;;;;;;6.47;3.28;;;;;;;;;;5093101;28;20180;-67
2023/03/06 10:12:48;;;;;;;3.63;3.33;;;;;;;;;;5095956;28;20216;-67
2023/03/06 10:15:16;;;;;;;8.32;3.20;;;;;;;;;;5097244;28;20282;-68
2023/03/06 10:17:44;;;;;;;3.05;2.72;;;;;;;;;;5096877;28;20250;-68
2023/03/06 10:20:19;;;;;;;3.33;3.08;;;;;;;;;;5096969;28;20185;-67
2023/03/06 10:22:50;;;;;;;3.40;3.10;;;;;;;;;;5097118;28;20275;-67
2023/03/06 10:25:22;;;;;;;8.77;3.90;;;;;;;;;;5096940;28;20191;-65
2023/03/06 10:27:50;;;;;;;2.10;2.00;;;;;;;;;;5096862;28;20192;-66
2023/03/06 10:30:32;;;;;;;2.55;1.98;;;;;;;;;;5096712;28;20324;-67
2023/03/06 10:33:00;;;;;;;2.75;2.08;;;;;;;;;;5096662;28;20191;-67
2023/03/06 10:35:29;;;;;;;2.10;2.00;;;;;;;;;;5096913;28;20194;-68
2023/03/06 10:37:59;;;;;;;3.22;2.50;;;;;;;;;;5096820;28;20208;-64
2023/03/06 10:40:30;;;;;;;2.92;2.72;;;;;;;;;;5096796;28;20193;-68
2023/03/06 10:42:56;;;;;;;2.70;2.50;;;;;;;;;;5096959;28;20221;-86
2023/03/06 10:45:23;;;;;;;2.90;2.50;;;;;;;;;;5096345;28;20521;-75
2023/03/06 10:47:50;;;;;;;2.30;2.10;;;;;;;;;;5096222;28;20281;-65
2023/03/06 10:50:29;;;;;;;7.00;2.55;;;;;;;;;;5096553;28;20543;-65
2023/03/06 10:53:00;;;;;;;1.90;1.65;;;;;;;;;;5096342;28;20652;-64
2023/03/06 10:55:29;;;;;;;2.30;2.10;;;;;;;;;;5096338;28;20198;-61
2023/03/06 10:57:56;;;;;;;2.90;1.85;;;;;;;;;;5096199;28;20194;-63
2023/03/06 11:00:26;;;;;;;2.10;1.90;;;;;;;;;;5096393;28;20231;-62
2023/03/06 11:03:13;;;;;;;1.65;1.40;;;;;;;;;;5096367;28;20242;-70
2023/03/06 11:05:41;;;;;;;3.55;1.98;;;;;;;;;;5096203;28;20276;-69
2023/03/06 11:08:20;;;;;;;3.08;1.70;;;;;;;;;;5096048;28;20224;-66
2023/03/06 11:10:55;;;;;;;2.90;2.40;;;;;;;;;;5096189;28;20517;-67
2023/03/06 11:13:23;;;;;;;3.95;2.45;;;;;;;;;;5096073;28;20191;-67
2023/03/06 11:15:56;;;;;;;2.88;2.53;;;;;;;;;;5095818;28;20465;-63
2023/03/06 11:18:27;;;;;;;2.40;1.73;;;;;;;;;;5096903;28;20200;-81
2023/03/06 11:20:55;;;;;;;4.82;1.92;;;;;;;;;;5095869;28;20611;-69
2023/03/06 11:23:27;;;;;;;1.77;1.67;;;;;;;;;;5095533;28;20197;-68
2023/03/06 11:25:57;;;;;;;3.40;1.90;;;;;;;;;;5095808;28;20659;-72
2023/03/06 11:28:26;;;;;;;2.40;2.20;;;;;;;;;;5095744;28;20199;-67
2023/03/06 11:30:55;;;;;;;5.25;2.42;;;;;;;;;;5095681;28;20299;-67
2023/03/06 11:33:26;;;;;;;2.50;2.30;;;;;;;;;;5095146;28;20276;-68
2023/03/06 11:35:57;;;;;;;2.45;2.00;;;;;;;;;;5095683;28;20195;-76
2023/03/06 11:38:26;;;;;;;6.00;3.70;;;;;;;;;;5095753;28;20193;-67
2023/03/06 11:40:54;;;;;;;3.03;2.65;;;;;;;;;;5095655;28;20225;-62
2023/03/06 11:43:25;;;;;;;3.35;1.73;;;;;;;;;;5095466;28;20283;-65
2023/03/06 11:45:57;;;;;;;1.80;1.70;;;;;;;;;;5095181;28;20195;-63
2023/03/06 11:48:25;;;;;;;4.95;2.08;;;;;;;;;;5095104;28;20282;-65
2023/03/06 11:50:53;;;;;;;3.90;2.00;;;;;;;;;;5095348;28;20189;-64
2023/03/06 11:53:21;;;;;;;1.95;1.77;;;;;;;;;;5095015;28;20282;-75
2023/03/06 11:55:53;;;;;;;3.05;1.75;;;;;;;;;;5096164;28;20208;-73
2023/03/06 11:58:47;;;;;;;2.67;1.80;;;;;;;;;;5095035;28;20196;-68
2023/03/06 12:01:17;;;;;;;3.78;2.03;;;;;;;;;;5058911;28;20191;-68
2023/03/06 12:03:54;;;;;;;5.20;2.20;;;;;;;;;;5094800;28;20202;-64
2023/03/06 12:06:27;;;;;;;4.57;1.55;;;;;;;;;;5095146;28;20185;-64
2023/03/06 12:09:00;;;;;;;2.30;1.83;;;;;;;;;;5095108;28;20588;-63
2023/03/06 12:11:30;;;;;;;2.85;1.60;;;;;;;;;;5095166;28;20559;-62
2023/03/06 12:14:14;;;;;;;3.08;1.40;;;;;;;;;;5094715;28;20762;-67
2023/03/06 12:16:51;;;;;;;1.67;1.50;;;;;;;;;;5094647;28;20221;-67
2023/03/06 12:19:28;;;;;;;2.35;2.15;;;;;;;;;;5094662;28;20225;-69
2023/03/06 12:21:59;;;;;;;3.28;2.25;;;;;;;;;;5094415;28;20197;-72
2023/03/06 12:24:37;;;;;;;3.78;2.20;;;;;;;;;;5095554;28;20199;-84
2023/03/06 12:27:10;;;;;;;1.83;1.73;;;;;;;;;;5094938;28;20196;-69
2023/03/06 12:29:42;;;;;;;2.67;1.55;;;;;;;;;;5094387;28;20201;-68
2023/03/06 12:32:17;;;;;;;3.05;2.75;;;;;;;;;;5094471;28;20264;-67
2023/03/06 12:34:51;;;;;;;2.33;1.63;;;;;;;;;;5094722;28;20223;-71
2023/03/06 12:37:22;;;;;;;2.17;1.98;;;;;;;;;;5094443;28;20695;-72
2023/03/06 12:39:55;;;;;;;2.40;1.73;;;;;;;;;;5094380;28;20199;-68
2023/03/06 12:42:29;;;;;;;1.92;1.00;;;;;;;;;;5094413;28;20197;-68
2023/03/06 12:45:04;;;;;;;3.50;1.20;;;;;;;;;;5094313;28;20191;-68
2023/03/06 12:47:37;;;;;;;1.33;1.00;;;;;;;;;;5094188;28;20267;-62
2023/03/06 12:50:08;;;;;;;1.38;1.23;;;;;;;;;;5094149;28;20199;-69
2023/03/06 12:52:36;;;;;;;2.90;1.60;;;;;;;;;;5094055;28;20275;-66
2023/03/06 12:55:05;;;;;;;1.88;1.35;;;;;;;;;;5094110;28;20226;-67
2023/03/06 12:57:32;;;;;;;1.45;1.30;;;;;;;;;;5093898;28;20200;-67
2023/03/06 12:59:59;;;;;;;3.45;2.90;;;;;;;;;;5093946;28;20196;-66
2023/03/06 13:02:43;;;;;;;2.40;2.30;;;;;;;;;;5093615;28;20653;-68
2023/03/06 13:05:24;;;;;;;2.15;1.38;;;;;;;;;;5093744;28;20567;-65
2023/03/06 13:07:58;;;;;;;1.75;1.63;;;;;;;;;;5093788;28;20276;-64
2023/03/06 13:10:27;;;;;;;3.72;1.23;;;;;;;;;;5093812;28;20188;-69
2023/03/06 13:12:55;;;;;;;4.22;1.40;;;;;;;;;;5093489;28;20539;-67
2023/03/06 13:15:40;;;;;;;1.43;1.10;;;;;;;;;;5093424;28;20996;-66
2023/03/06 13:18:26;;;;;;;5.87;1.63;;;;;;;;;;5093748;28;20454;-65
2023/03/06 13:20:55;;;;;;;2.67;1.10;;;;;;;;;;5093530;28;20450;-67
2023/03/06 13:23:44;;;;;;;6.60;1.40;;;;;;;;;;5093542;28;20239;-61
2023/03/06 13:26:18;;;;;;;1.42;1.23;;;;;;;;;;5093633;28;20207;-64
2023/03/06 13:28:48;;;;;;;4.33;2.00;;;;;;;;;;5093701;28;20188;-68
2023/03/06 13:31:26;;;;;;;4.07;3.42;;;;;;;;;;5093341;28;20451;-68
2023/03/06 13:33:59;;;;;;;3.65;1.80;;;;;;;;;;5093243;28;20193;-65
2023/03/06 13:36:29;;;;;;;2.75;1.48;;;;;;;;;;5093540;28;20189;-83
2023/03/06 13:39:00;;;;;;;4.60;2.10;;;;;;;;;;5093380;28;20562;-67
2023/03/06 13:41:38;;;;;;;6.73;2.50;;;;;;;;;;5093248;28;20184;-71
2023/03/06 13:44:35;;;;;;;3.90;2.13;;;;;;;;;;5093210;28;20447;-68
2023/03/06 13:47:05;;;;;;;3.20;1.87;;;;;;;;;;5030558;28;20465;-70
2023/03/06 13:49:32;;;;;;;4.47;2.00;;;;;;;;;;5079207;28;20462;-65
2023/03/06 13:52:06;;;;;;;2.65;2.17;;;;;;;;;;5093118;28;20545;-61
2023/03/06 13:54:40;;;;;;;2.42;1.90;;;;;;;;;;5093031;28;20214;-63
2023/03/06 13:57:17;;;;;;;3.00;2.25;;;;;;;;;;5093107;28;20249;-61
2023/03/06 14:00:13;;;;;;;2.45;1.95;;;;;;;;;;5093091;28;20192;-63
2023/03/06 14:03:03;;;;;;;4.33;1.90;;;;;;;;;;5057560;28;20208;-67
2023/03/06 14:05:33;;;;;;;3.50;1.50;;;;;;;;;;5077652;28;20487;-69
2023/03/06 14:08:09;;;;;;;1.92;1.73;;;;;;;;;;5093216;28;20224;-65
2023/03/06 14:10:37;;;;;;;4.60;1.70;;;;;;;;;;5092132;28;20456;-65
2023/03/06 14:13:06;;;;;;;2.13;1.90;;;;;;;;;;5092889;28;20640;-65
2023/03/06 14:15:41;;;;;;;5.87;3.23;;;;;;;;;;5092795;28;20486;-65
2023/03/06 14:18:14;;;;;;;2.80;2.50;;;;;;;;;;5092928;28;20447;-65
2023/03/06 14:20:42;;;;;;;2.47;1.75;;;;;;;;;;5093234;28;20475;-65
2023/03/06 14:23:22;;;;;;;4.38;3.08;;;;;;;;;;5092880;28;20200;-65
2023/03/06 14:25:54;;;;;;;3.75;3.20;;;;;;;;;;5092830;28;20665;-65
2023/03/06 14:28:25;;;;;;;4.55;2.83;;;;;;;;;;5092567;28;20196;-65
2023/03/06 14:30:53;;;;;;;3.47;3.10;;;;;;;;;;5092997;28;20563;-65
2023/03/06 14:33:31;;;;;;;5.32;2.88;;;;;;;;;;5092835;28;20189;-65
2023/03/06 14:36:01;;;;;;;3.75;2.50;;;;;;;;;;5092649;28;20621;-64
2023/03/06 14:38:32;;;;;;;3.47;2.93;;;;;;;;;;5092705;28;20220;-65
2023/03/06 14:40:59;;;;;;;22.17;4.30;;;;;;;;;;5092521;28;20446;-65
2023/03/06 14:43:30;;;;;;;3.80;3.50;;;;;;;;;;5092884;28;20728;-66
2023/03/06 14:45:58;;;;;;;3.07;2.87;;;;;;;;;;5092500;28;20193;-66
2023/03/06 14:48:26;;;;;;;3.83;2.40;;;;;;;;;;5092575;28;20478;-66
2023/03/06 14:50:57;;;;;;;2.53;2.20;;;;;;;;;;5092610;28;20453;-66
2023/03/06 14:53:28;;;;;;;6.03;2.70;;;;;;;;;;5092491;28;20482;-65
2023/03/06 14:55:58;;;;;;;3.47;2.95;;;;;;;;;;5092659;28;20478;-65